Messwerte Lompoc

Temperatur

Temperatur
°C
1624017600 5.00 5.00 12
1624021200 6.00 6.00 12
1624024800 7.00 7.00 13
1624028400 8.00 8.00 13
1624032000 9.00 9.00 16
1624035600 10.00 10.00 21
1624039200 11.00 11.00 23
1624042800 12.00 12.00 24
1624046400 13.00 13.00 25
1624050000 14.00 14.00 23
1624053600 15.00 15.00 21
1624057200 16.00 16.00 21
1624060800 17.00 17.00 19
1624064400 18.00 18.00 18
1624068000 19.00 19.00 16
1624071600 20.00 20.00
1624075200 21.00 21.00 14
1624078800 22.00 22.00 13
1624082400 23.00 23.00 13
1624086000 0.00 0.00 13
1624089600 1.00 1.00 12
1624093200 2.00 2.00 13
1624096800 3.00 3.00 13
1624100400 4.00 4.00 13

Aktuellste Messwerte

Wettercharakter
Wetter: bedeckt, wenig Regen
Temperatur
12 °C
Feuchtigkeit
100 %
Wind
5 km/hWindrichtung: Ost
Luftdruck
1010 hPa
Messzeit: 19. Juni 2021, 6.00Datenquelle: METAR

Weitere Messstationen in der Nähe

Messstation Temperatur Entfernung
Vandenberg AFB 12 °C 13 km
Santa Maria 11 °C 26 km
Santa Ynez 12 °C 36 km
Santa Barbara 15 °C 64 km
San Luis Obispo 12 °C 65 km
Oxnard 17 °C 127 km
Camarillo 18 °C 137 km

Wind

Windrichtung Böen Mittelwind
° km/h km/h
1624017600 5.00 4.00 - 5.00 0
1624021200 6.00 5.00 - 6.00 280° 5
1624024800 7.00 6.00 - 7.00 320° 5
1624028400 8.00 7.00 - 8.00 290° 5
1624032000 9.00 8.00 - 9.00 240° 5
1624035600 10.00 9.00 - 10.00 260° 15
1624039200 11.00 10.00 - 11.00 270° 20
1624042800 12.00 11.00 - 12.00 270° 20
1624046400 13.00 12.00 - 13.00 260° 20
1624050000 14.00 13.00 - 14.00 280° 25
1624053600 15.00 14.00 - 15.00 280° 20
1624057200 16.00 15.00 - 16.00 270° 20
1624060800 17.00 16.00 - 17.00
1624064400 18.00 17.00 - 18.00 280° 20
1624068000 19.00 18.00 - 19.00 270° 20
1624071600 20.00 19.00 - 20.00
1624075200 21.00 20.00 - 21.00 250° 10
1624078800 22.00 21.00 - 22.00 300° 5
1624082400 23.00 22.00 - 23.00 0
1624086000 0.00 23.00 - 0.00 260° 5
1624089600 1.00 0.00 - 1.00 0
1624093200 2.00 1.00 - 2.00 0
1624096800 3.00 2.00 - 3.00 70° 5
1624100400 4.00 3.00 - 4.00 0

Ihre Wetterstation

Fehlt Ihre Wetterstation auf unserem Portal?

Schreiben Sie an network@meteonews.ch

Klima

Wann ist es am wärmsten? Wann regnet es am wenigsten? Unsere Klimadaten geben Auskunft.